sensor_id;sensor_type;location;lat;lon;timestamp;temperature;humidity
6879;DHT22;3478;51.462;7.338;2024-03-02T00:01:28;8.50;99.90
6879;DHT22;3478;51.462;7.338;2024-03-02T00:06:30;8.40;99.90
6879;DHT22;3478;51.462;7.338;2024-03-02T00:11:36;8.40;99.90
6879;DHT22;3478;51.462;7.338;2024-03-02T00:16:38;8.30;99.90
6879;DHT22;3478;51.462;7.338;2024-03-02T00:21:40;8.30;99.90
6879;DHT22;3478;51.462;7.338;2024-03-02T00:26:45;8.40;99.90
6879;DHT22;3478;51.462;7.338;2024-03-02T00:31:47;8.20;99.90
6879;DHT22;3478;51.462;7.338;2024-03-02T00:36:49;8.30;99.90
6879;DHT22;3478;51.462;7.338;2024-03-02T00:41:52;8.30;99.90
6879;DHT22;3478;51.462;7.338;2024-03-02T00:46:54;8.20;99.90
6879;DHT22;3478;51.462;7.338;2024-03-02T00:51:56;8.30;99.90
6879;DHT22;3478;51.462;7.338;2024-03-02T00:56:59;8.30;99.90
6879;DHT22;3478;51.462;7.338;2024-03-02T01:02:01;8.20;99.90
6879;DHT22;3478;51.462;7.338;2024-03-02T01:07:03;8.10;99.90
6879;DHT22;3478;51.462;7.338;2024-03-02T01:12:07;8.10;99.90
6879;DHT22;3478;51.462;7.338;2024-03-02T01:17:09;8.10;99.90
6879;DHT22;3478;51.462;7.338;2024-03-02T01:22:11;8.10;99.90
6879;DHT22;3478;51.462;7.338;2024-03-02T01:27:14;8.10;99.90
6879;DHT22;3478;51.462;7.338;2024-03-02T01:32:16;8.20;99.90
6879;DHT22;3478;51.462;7.338;2024-03-02T01:37:18;8.20;99.90
6879;DHT22;3478;51.462;7.338;2024-03-02T01:42:21;8.30;99.90
6879;DHT22;3478;51.462;7.338;2024-03-02T01:47:23;8.30;99.90
6879;DHT22;3478;51.462;7.338;2024-03-02T01:52:25;8.40;99.90
6879;DHT22;3478;51.462;7.338;2024-03-02T01:57:28;8.30;99.90
6879;DHT22;3478;51.462;7.338;2024-03-02T02:02:30;8.20;99.90
6879;DHT22;3478;51.462;7.338;2024-03-02T02:07:32;8.20;99.90
6879;DHT22;3478;51.462;7.338;2024-03-02T02:12:37;8.10;99.90
6879;DHT22;3478;51.462;7.338;2024-03-02T02:17:39;8.10;99.90
6879;DHT22;3478;51.462;7.338;2024-03-02T02:22:55;8.10;99.90
6879;DHT22;3478;51.462;7.338;2024-03-02T02:27:58;8.20;99.90
6879;DHT22;3478;51.462;7.338;2024-03-02T02:32:59;8.20;99.90
6879;DHT22;3478;51.462;7.338;2024-03-02T02:38:03;8.20;99.90
6879;DHT22;3478;51.462;7.338;2024-03-02T02:43:05;8.10;99.90
6879;DHT22;3478;51.462;7.338;2024-03-02T02:48:08;8.20;99.90
6879;DHT22;3478;51.462;7.338;2024-03-02T02:53:11;8.30;99.90
6879;DHT22;3478;51.462;7.338;2024-03-02T02:58:13;8.30;99.90
6879;DHT22;3478;51.462;7.338;2024-03-02T03:03:15;8.40;99.90
6879;DHT22;3478;51.462;7.338;2024-03-02T03:08:18;8.50;99.90
6879;DHT22;3478;51.462;7.338;2024-03-02T03:13:20;8.50;99.90
6879;DHT22;3478;51.462;7.338;2024-03-02T03:18:21;8.50;99.90
6879;DHT22;3478;51.462;7.338;2024-03-02T03:23:25;8.50;99.90
6879;DHT22;3478;51.462;7.338;2024-03-02T03:28:26;8.50;99.90
6879;DHT22;3478;51.462;7.338;2024-03-02T03:33:28;8.50;99.90
6879;DHT22;3478;51.462;7.338;2024-03-02T03:38:31;8.40;99.90
6879;DHT22;3478;51.462;7.338;2024-03-02T03:43:33;8.50;99.90
6879;DHT22;3478;51.462;7.338;2024-03-02T03:48:35;8.40;99.90
6879;DHT22;3478;51.462;7.338;2024-03-02T03:53:38;8.40;99.90
6879;DHT22;3478;51.462;7.338;2024-03-02T03:58:40;8.40;99.90
6879;DHT22;3478;51.462;7.338;2024-03-02T04:03:42;8.50;99.90
6879;DHT22;3478;51.462;7.338;2024-03-02T04:08:45;8.50;99.90
6879;DHT22;3478;51.462;7.338;2024-03-02T04:13:47;8.50;99.90
6879;DHT22;3478;51.462;7.338;2024-03-02T04:18:48;8.50;99.90
6879;DHT22;3478;51.462;7.338;2024-03-02T04:23:52;8.50;99.90
6879;DHT22;3478;51.462;7.338;2024-03-02T04:28:58;8.50;99.90
6879;DHT22;3478;51.462;7.338;2024-03-02T04:33:59;8.50;99.90
6879;DHT22;3478;51.462;7.338;2024-03-02T04:39:02;8.50;99.90
6879;DHT22;3478;51.462;7.338;2024-03-02T04:44:05;8.50;99.90
6879;DHT22;3478;51.462;7.338;2024-03-02T04:49:08;8.40;99.90
6879;DHT22;3478;51.462;7.338;2024-03-02T04:54:11;8.50;99.90
6879;DHT22;3478;51.462;7.338;2024-03-02T04:59:14;8.50;99.90
6879;DHT22;3478;51.462;7.338;2024-03-02T05:04:16;8.40;99.90
6879;DHT22;3478;51.462;7.338;2024-03-02T05:09:19;8.40;99.90
6879;DHT22;3478;51.462;7.338;2024-03-02T05:14:21;8.40;99.90
6879;DHT22;3478;51.462;7.338;2024-03-02T05:19:23;8.30;99.90
6879;DHT22;3478;51.462;7.338;2024-03-02T05:24:27;8.30;99.90
6879;DHT22;3478;51.462;7.338;2024-03-02T05:29:28;8.20;99.90
6879;DHT22;3478;51.462;7.338;2024-03-02T05:34:30;8.10;99.90
6879;DHT22;3478;51.462;7.338;2024-03-02T05:39:34;8.10;99.90
6879;DHT22;3478;51.462;7.338;2024-03-02T05:44:36;8.00;99.90
6879;DHT22;3478;51.462;7.338;2024-03-02T05:49:38;8.00;99.90
6879;DHT22;3478;51.462;7.338;2024-03-02T05:54:41;8.00;99.90
6879;DHT22;3478;51.462;7.338;2024-03-02T05:59:43;7.90;99.90
6879;DHT22;3478;51.462;7.338;2024-03-02T06:04:45;7.80;99.90
6879;DHT22;3478;51.462;7.338;2024-03-02T06:09:48;7.70;99.90
6879;DHT22;3478;51.462;7.338;2024-03-02T06:14:52;7.70;99.90
6879;DHT22;3478;51.462;7.338;2024-03-02T06:19:54;7.70;99.90
6879;DHT22;3478;51.462;7.338;2024-03-02T06:24:57;7.90;99.90
6879;DHT22;3478;51.462;7.338;2024-03-02T06:29:59;7.90;99.90
6879;DHT22;3478;51.462;7.338;2024-03-02T06:35:01;8.00;99.90
6879;DHT22;3478;51.462;7.338;2024-03-02T06:40:07;8.00;99.90
6879;DHT22;3478;51.462;7.338;2024-03-02T06:45:09;7.90;99.90
6879;DHT22;3478;51.462;7.338;2024-03-02T06:50:11;8.00;99.90
6879;DHT22;3478;51.462;7.338;2024-03-02T06:55:14;7.90;99.90
6879;DHT22;3478;51.462;7.338;2024-03-02T07:00:16;8.10;99.90
6879;DHT22;3478;51.462;7.338;2024-03-02T07:05:19;8.20;99.90
6879;DHT22;3478;51.462;7.338;2024-03-02T07:10:23;8.30;99.90
6879;DHT22;3478;51.462;7.338;2024-03-02T07:15:24;8.30;99.90
6879;DHT22;3478;51.462;7.338;2024-03-02T07:20:43;8.30;99.90
6879;DHT22;3478;51.462;7.338;2024-03-02T07:25:46;8.40;99.90
6879;DHT22;3478;51.462;7.338;2024-03-02T07:30:57;8.40;99.90
6879;DHT22;3478;51.462;7.338;2024-03-02T07:36:00;8.50;99.90
6879;DHT22;3478;51.462;7.338;2024-03-02T07:41:03;8.50;99.90
6879;DHT22;3478;51.462;7.338;2024-03-02T07:46:06;8.70;99.90
6879;DHT22;3478;51.462;7.338;2024-03-02T07:51:08;8.80;99.90
6879;DHT22;3478;51.462;7.338;2024-03-02T07:56:11;8.90;99.90
6879;DHT22;3478;51.462;7.338;2024-03-02T08:01:13;9.10;99.90
6879;DHT22;3478;51.462;7.338;2024-03-02T08:06:14;9.10;99.90
6879;DHT22;3478;51.462;7.338;2024-03-02T08:11:18;9.20;99.90
6879;DHT22;3478;51.462;7.338;2024-03-02T08:16:19;9.40;99.90
6879;DHT22;3478;51.462;7.338;2024-03-02T08:21:21;9.50;99.90
6879;DHT22;3478;51.462;7.338;2024-03-02T08:26:24;9.60;99.90
6879;DHT22;3478;51.462;7.338;2024-03-02T08:31:29;9.70;99.90
6879;DHT22;3478;51.462;7.338;2024-03-02T08:36:31;9.80;99.90
6879;DHT22;3478;51.462;7.338;2024-03-02T08:41:34;10.00;99.90
6879;DHT22;3478;51.462;7.338;2024-03-02T08:46:36;9.80;99.90
6879;DHT22;3478;51.462;7.338;2024-03-02T08:51:38;9.70;99.90
6879;DHT22;3478;51.462;7.338;2024-03-02T08:56:41;9.70;99.90
6879;DHT22;3478;51.462;7.338;2024-03-02T09:01:43;9.80;99.90
6879;DHT22;3478;51.462;7.338;2024-03-02T09:06:45;10.20;99.90
6879;DHT22;3478;51.462;7.338;2024-03-02T09:11:48;10.70;99.90
6879;DHT22;3478;51.462;7.338;2024-03-02T09:16:50;10.70;99.90
6879;DHT22;3478;51.462;7.338;2024-03-02T09:21:52;10.80;99.90
6879;DHT22;3478;51.462;7.338;2024-03-02T09:26:57;11.10;99.90
6879;DHT22;3478;51.462;7.338;2024-03-02T09:31:59;11.30;99.90
6879;DHT22;3478;51.462;7.338;2024-03-02T09:37:00;11.40;99.90
6879;DHT22;3478;51.462;7.338;2024-03-02T09:42:06;11.50;99.90
6879;DHT22;3478;51.462;7.338;2024-03-02T09:47:08;11.80;99.30
6879;DHT22;3478;51.462;7.338;2024-03-02T09:52:10;11.70;99.50
6879;DHT22;3478;51.462;7.338;2024-03-02T09:57:13;11.70;98.70
6879;DHT22;3478;51.462;7.338;2024-03-02T10:02:15;12.00;98.90
6879;DHT22;3478;51.462;7.338;2024-03-02T10:07:18;12.20;97.50
6879;DHT22;3478;51.462;7.338;2024-03-02T10:12:21;12.50;98.30
6879;DHT22;3478;51.462;7.338;2024-03-02T10:17:31;12.60;97.00
6879;DHT22;3478;51.462;7.338;2024-03-02T10:22:33;12.50;96.30
6879;DHT22;3478;51.462;7.338;2024-03-02T10:27:36;12.70;96.80
6879;DHT22;3478;51.462;7.338;2024-03-02T10:32:38;12.80;95.90
6879;DHT22;3478;51.462;7.338;2024-03-02T10:37:40;12.90;95.10
6879;DHT22;3478;51.462;7.338;2024-03-02T10:42:45;13.00;95.30
6879;DHT22;3478;51.462;7.338;2024-03-02T10:47:47;12.90;94.40
6879;DHT22;3478;51.462;7.338;2024-03-02T10:52:49;13.20;92.80
6879;DHT22;3478;51.462;7.338;2024-03-02T10:57:53;13.40;92.70
6879;DHT22;3478;51.462;7.338;2024-03-02T11:02:58;14.10;92.60
6879;DHT22;3478;51.462;7.338;2024-03-02T11:08:04;14.70;91.30
6879;DHT22;3478;51.462;7.338;2024-03-02T11:13:09;14.80;88.50
6879;DHT22;3478;51.462;7.338;2024-03-02T11:18:14;15.10;86.40
6879;DHT22;3478;51.462;7.338;2024-03-02T11:23:16;15.40;82.60
6879;DHT22;3478;51.462;7.338;2024-03-02T11:28:35;15.80;80.50
6879;DHT22;3478;51.462;7.338;2024-03-02T11:33:37;15.80;80.80
6879;DHT22;3478;51.462;7.338;2024-03-02T11:38:39;17.10;78.50
6879;DHT22;3478;51.462;7.338;2024-03-02T11:43:46;17.30;74.90
6879;DHT22;3478;51.462;7.338;2024-03-02T11:48:47;17.80;70.40
6879;DHT22;3478;51.462;7.338;2024-03-02T11:53:50;18.90;70.00
6879;DHT22;3478;51.462;7.338;2024-03-02T11:58:54;19.10;66.10
6879;DHT22;3478;51.462;7.338;2024-03-02T12:03:55;19.40;66.60
6879;DHT22;3478;51.462;7.338;2024-03-02T12:09:00;19.70;65.90
6879;DHT22;3478;51.462;7.338;2024-03-02T12:14:03;18.80;64.20
6879;DHT22;3478;51.462;7.338;2024-03-02T12:19:05;19.10;65.70
6879;DHT22;3478;51.462;7.338;2024-03-02T12:24:07;19.00;62.70
6879;DHT22;3478;51.462;7.338;2024-03-02T12:29:11;18.60;63.80
6879;DHT22;3478;51.462;7.338;2024-03-02T12:34:14;17.90;66.00
6879;DHT22;3478;51.462;7.338;2024-03-02T12:39:17;17.20;68.40
6879;DHT22;3478;51.462;7.338;2024-03-02T12:44:20;17.00;68.80
6879;DHT22;3478;51.462;7.338;2024-03-02T12:49:22;16.40;70.90
6879;DHT22;3478;51.462;7.338;2024-03-02T12:54:25;17.20;73.20
6879;DHT22;3478;51.462;7.338;2024-03-02T12:59:28;17.10;70.10
6879;DHT22;3478;51.462;7.338;2024-03-02T13:04:31;16.30;70.80
6879;DHT22;3478;51.462;7.338;2024-03-02T13:09:33;15.80;70.40
6879;DHT22;3478;51.462;7.338;2024-03-02T13:14:36;15.70;72.30
6879;DHT22;3478;51.462;7.338;2024-03-02T13:19:38;16.00;72.40
6879;DHT22;3478;51.462;7.338;2024-03-02T13:24:40;16.20;70.90
6879;DHT22;3478;51.462;7.338;2024-03-02T13:29:44;16.30;70.60
6879;DHT22;3478;51.462;7.338;2024-03-02T13:34:46;16.00;70.90
6879;DHT22;3478;51.462;7.338;2024-03-02T13:39:48;15.60;70.50
6879;DHT22;3478;51.462;7.338;2024-03-02T13:44:51;15.40;70.40
6879;DHT22;3478;51.462;7.338;2024-03-02T13:49:53;15.40;70.90
6879;DHT22;3478;51.462;7.338;2024-03-02T13:54:55;15.30;71.80
6879;DHT22;3478;51.462;7.338;2024-03-02T13:59:58;15.40;70.90
6879;DHT22;3478;51.462;7.338;2024-03-02T14:05:00;15.30;71.30
6879;DHT22;3478;51.462;7.338;2024-03-02T14:10:02;15.40;71.10
6879;DHT22;3478;51.462;7.338;2024-03-02T14:15:06;15.40;71.70
6879;DHT22;3478;51.462;7.338;2024-03-02T14:20:09;15.30;71.80
6879;DHT22;3478;51.462;7.338;2024-03-02T14:25:12;15.30;72.00
6879;DHT22;3478;51.462;7.338;2024-03-02T14:30:15;15.80;71.40
6879;DHT22;3478;51.462;7.338;2024-03-02T14:35:17;15.40;72.50
6879;DHT22;3478;51.462;7.338;2024-03-02T14:40:19;14.80;74.30
6879;DHT22;3478;51.462;7.338;2024-03-02T14:45:23;14.40;74.90
6879;DHT22;3478;51.462;7.338;2024-03-02T14:50:25;14.40;75.50
6879;DHT22;3478;51.462;7.338;2024-03-02T14:55:27;14.30;76.50
6879;DHT22;3478;51.462;7.338;2024-03-02T15:00:30;14.10;76.20
6879;DHT22;3478;51.462;7.338;2024-03-02T15:05:32;14.20;77.20
6879;DHT22;3478;51.462;7.338;2024-03-02T15:10:34;14.30;78.30
6879;DHT22;3478;51.462;7.338;2024-03-02T15:15:37;14.20;78.50
6879;DHT22;3478;51.462;7.338;2024-03-02T15:20:39;14.10;78.70
6879;DHT22;3478;51.462;7.338;2024-03-02T15:25:41;14.00;80.00
6879;DHT22;3478;51.462;7.338;2024-03-02T15:30:45;13.90;79.50
6879;DHT22;3478;51.462;7.338;2024-03-02T15:35:46;14.10;77.90
6879;DHT22;3478;51.462;7.338;2024-03-02T15:40:48;14.10;79.00
6879;DHT22;3478;51.462;7.338;2024-03-02T15:45:51;14.10;78.80
6879;DHT22;3478;51.462;7.338;2024-03-02T15:50:53;14.00;78.70
6879;DHT22;3478;51.462;7.338;2024-03-02T15:55:56;13.90;79.10
6879;DHT22;3478;51.462;7.338;2024-03-02T16:00:59;13.80;80.20
6879;DHT22;3478;51.462;7.338;2024-03-02T16:06:01;13.80;80.00
6879;DHT22;3478;51.462;7.338;2024-03-02T16:11:03;13.90;79.20
6879;DHT22;3478;51.462;7.338;2024-03-02T16:16:06;13.90;81.00
6879;DHT22;3478;51.462;7.338;2024-03-02T16:21:08;13.90;78.70
6879;DHT22;3478;51.462;7.338;2024-03-02T16:26:10;13.80;79.30
6879;DHT22;3478;51.462;7.338;2024-03-02T16:31:14;13.70;78.80
6879;DHT22;3478;51.462;7.338;2024-03-02T16:36:16;13.60;78.60
6879;DHT22;3478;51.462;7.338;2024-03-02T16:41:18;13.50;79.00
6879;DHT22;3478;51.462;7.338;2024-03-02T16:46:21;13.50;79.70
6879;DHT22;3478;51.462;7.338;2024-03-02T16:51:24;13.40;78.40
6879;DHT22;3478;51.462;7.338;2024-03-02T16:56:26;13.20;78.40
6879;DHT22;3478;51.462;7.338;2024-03-02T17:01:30;13.00;78.70
6879;DHT22;3478;51.462;7.338;2024-03-02T17:06:35;12.90;77.90
6879;DHT22;3478;51.462;7.338;2024-03-02T17:11:37;13.00;76.30
6879;DHT22;3478;51.462;7.338;2024-03-02T17:16:40;12.90;76.40
6879;DHT22;3478;51.462;7.338;2024-03-02T17:21:42;12.90;76.50
6879;DHT22;3478;51.462;7.338;2024-03-02T17:26:44;12.70;76.40
6879;DHT22;3478;51.462;7.338;2024-03-02T17:31:47;12.60;77.70
6879;DHT22;3478;51.462;7.338;2024-03-02T17:36:49;12.50;77.60
6879;DHT22;3478;51.462;7.338;2024-03-02T17:41:50;12.50;78.40
6879;DHT22;3478;51.462;7.338;2024-03-02T17:46:55;12.50;79.30
6879;DHT22;3478;51.462;7.338;2024-03-02T17:51:57;12.50;80.20
6879;DHT22;3478;51.462;7.338;2024-03-02T17:56:59;12.50;81.10
6879;DHT22;3478;51.462;7.338;2024-03-02T18:02:02;12.50;82.10
6879;DHT22;3478;51.462;7.338;2024-03-02T18:07:04;12.40;82.40
6879;DHT22;3478;51.462;7.338;2024-03-02T18:12:06;12.40;83.20
6879;DHT22;3478;51.462;7.338;2024-03-02T18:17:09;12.30;84.00
6879;DHT22;3478;51.462;7.338;2024-03-02T18:22:12;12.20;84.40
6879;DHT22;3478;51.462;7.338;2024-03-02T18:27:14;12.30;84.90
6879;DHT22;3478;51.462;7.338;2024-03-02T18:32:17;12.30;85.00
6879;DHT22;3478;51.462;7.338;2024-03-02T18:37:19;12.30;85.30
6879;DHT22;3478;51.462;7.338;2024-03-02T18:42:22;12.30;86.50
6879;DHT22;3478;51.462;7.338;2024-03-02T18:47:25;12.30;85.50
6879;DHT22;3478;51.462;7.338;2024-03-02T18:52:28;12.20;86.20
6879;DHT22;3478;51.462;7.338;2024-03-02T18:57:30;12.20;86.60
6879;DHT22;3478;51.462;7.338;2024-03-02T19:02:33;12.20;87.10
6879;DHT22;3478;51.462;7.338;2024-03-02T19:07:35;12.20;86.90
6879;DHT22;3478;51.462;7.338;2024-03-02T19:12:37;12.10;86.60
6879;DHT22;3478;51.462;7.338;2024-03-02T19:17:40;12.20;86.20
6879;DHT22;3478;51.462;7.338;2024-03-02T19:22:43;12.10;88.40
6879;DHT22;3478;51.462;7.338;2024-03-02T19:27:45;12.10;87.50
6879;DHT22;3478;51.462;7.338;2024-03-02T19:32:48;12.00;87.40
6879;DHT22;3478;51.462;7.338;2024-03-02T19:37:50;12.00;87.60
6879;DHT22;3478;51.462;7.338;2024-03-02T19:42:52;12.00;88.40
6879;DHT22;3478;51.462;7.338;2024-03-02T19:47:56;11.90;88.80
6879;DHT22;3478;51.462;7.338;2024-03-02T19:52:58;11.90;88.70
6879;DHT22;3478;51.462;7.338;2024-03-02T19:57:59;11.80;88.80
6879;DHT22;3478;51.462;7.338;2024-03-02T20:03:03;11.90;89.00
6879;DHT22;3478;51.462;7.338;2024-03-02T20:08:05;11.80;89.80
6879;DHT22;3478;51.462;7.338;2024-03-02T20:13:08;11.80;90.00
6879;DHT22;3478;51.462;7.338;2024-03-02T20:18:11;11.70;90.20
6879;DHT22;3478;51.462;7.338;2024-03-02T20:23:13;11.70;90.30
6879;DHT22;3478;51.462;7.338;2024-03-02T20:28:15;11.70;90.10
6879;DHT22;3478;51.462;7.338;2024-03-02T20:33:18;11.60;90.40
6879;DHT22;3478;51.462;7.338;2024-03-02T20:38:20;11.60;90.50
6879;DHT22;3478;51.462;7.338;2024-03-02T20:43:22;11.60;90.70
6879;DHT22;3478;51.462;7.338;2024-03-02T20:48:25;11.50;91.00
6879;DHT22;3478;51.462;7.338;2024-03-02T20:53:29;11.40;91.40
6879;DHT22;3478;51.462;7.338;2024-03-02T20:58:31;11.40;91.60
6879;DHT22;3478;51.462;7.338;2024-03-02T21:03:34;11.40;91.90
6879;DHT22;3478;51.462;7.338;2024-03-02T21:08:38;11.40;92.40
6879;DHT22;3478;51.462;7.338;2024-03-02T21:13:40;11.50;92.30
6879;DHT22;3478;51.462;7.338;2024-03-02T21:18:44;11.60;92.60
6879;DHT22;3478;51.462;7.338;2024-03-02T21:23:46;11.50;92.60
6879;DHT22;3478;51.462;7.338;2024-03-02T21:28:48;11.40;93.00
6879;DHT22;3478;51.462;7.338;2024-03-02T21:33:51;11.40;93.40
6879;DHT22;3478;51.462;7.338;2024-03-02T21:38:53;11.30;93.90
6879;DHT22;3478;51.462;7.338;2024-03-02T21:43:54;11.20;94.20
6879;DHT22;3478;51.462;7.338;2024-03-02T21:49:00;11.20;94.40
6879;DHT22;3478;51.462;7.338;2024-03-02T21:54:02;11.10;94.90
6879;DHT22;3478;51.462;7.338;2024-03-02T21:59:04;11.10;95.10
6879;DHT22;3478;51.462;7.338;2024-03-02T22:04:07;11.00;95.50
6879;DHT22;3478;51.462;7.338;2024-03-02T22:09:09;11.00;95.90
6879;DHT22;3478;51.462;7.338;2024-03-02T22:14:17;11.00;96.20
6879;DHT22;3478;51.462;7.338;2024-03-02T22:19:21;10.90;96.60
6879;DHT22;3478;51.462;7.338;2024-03-02T22:24:23;10.90;96.90
6879;DHT22;3478;51.462;7.338;2024-03-02T22:29:25;10.90;97.50
6879;DHT22;3478;51.462;7.338;2024-03-02T22:34:28;10.90;97.90
6879;DHT22;3478;51.462;7.338;2024-03-02T22:39:30;10.90;98.00
6879;DHT22;3478;51.462;7.338;2024-03-02T22:44:32;11.00;98.00
6879;DHT22;3478;51.462;7.338;2024-03-02T22:49:36;11.00;98.10
6879;DHT22;3478;51.462;7.338;2024-03-02T22:54:38;11.00;97.90
6879;DHT22;3478;51.462;7.338;2024-03-02T22:59:39;11.00;98.00
6879;DHT22;3478;51.462;7.338;2024-03-02T23:04:43;11.00;97.90
6879;DHT22;3478;51.462;7.338;2024-03-02T23:09:45;11.00;97.50
6879;DHT22;3478;51.462;7.338;2024-03-02T23:14:47;11.00;97.60
6879;DHT22;3478;51.462;7.338;2024-03-02T23:19:50;11.00;97.70
6879;DHT22;3478;51.462;7.338;2024-03-02T23:24:52;11.00;97.70
6879;DHT22;3478;51.462;7.338;2024-03-02T23:29:53;11.10;97.60
6879;DHT22;3478;51.462;7.338;2024-03-02T23:34:57;11.10;97.30
6879;DHT22;3478;51.462;7.338;2024-03-02T23:39:58;11.00;97.30
6879;DHT22;3478;51.462;7.338;2024-03-02T23:45:24;10.90;97.30
6879;DHT22;3478;51.462;7.338;2024-03-02T23:50:27;11.00;96.80
6879;DHT22;3478;51.462;7.338;2024-03-02T23:55:29;11.00;96.70
